createdAt,value
2023-08-20T00:02:27.896Z,85.06
2023-08-20T00:05:00.203Z,85.10
2023-08-20T00:07:29.665Z,84.92
2023-08-20T00:09:58.198Z,84.92
2023-08-20T00:12:27.374Z,84.82
2023-08-20T00:15:00.025Z,84.91
2023-08-20T00:17:29.447Z,84.75
2023-08-20T00:19:58.758Z,84.71
2023-08-20T00:22:29.183Z,84.93
2023-08-20T00:24:58.576Z,85.07
2023-08-20T00:27:27.410Z,84.92
2023-08-20T00:29:57.737Z,84.84
2023-08-20T00:32:26.817Z,85.22
2023-08-20T00:34:55.547Z,85.39
2023-08-20T00:37:24.806Z,85.52
2023-08-20T00:39:53.747Z,85.74
2023-08-20T00:42:22.829Z,85.91
2023-08-20T00:44:51.718Z,85.94
2023-08-20T00:47:22.864Z,86.27
2023-08-20T00:49:52.314Z,86.38
2023-08-20T00:52:23.272Z,86.43
2023-08-20T00:54:52.813Z,86.92
2023-08-20T00:57:24.977Z,87.07
2023-08-20T00:59:53.955Z,87.23
2023-08-20T01:02:24.515Z,87.45
2023-08-20T01:04:55.091Z,87.49
2023-08-20T01:07:33.072Z,87.49
2023-08-20T01:10:10.854Z,87.30
2023-08-20T01:12:41.408Z,87.36
2023-08-20T01:15:15.061Z,87.73
2023-08-20T01:17:49.051Z,87.78
2023-08-20T01:20:18.359Z,88.20
2023-08-20T01:23:19.052Z,87.79
2023-08-20T01:26:05.707Z,87.90
2023-08-20T01:28:36.886Z,88.43
2023-08-20T01:31:06.572Z,88.18
2023-08-20T01:33:35.831Z,88.08
2023-08-20T01:36:11.690Z,87.97
2023-08-20T01:38:40.780Z,87.85
2023-08-20T01:41:09.550Z,88.00
2023-08-20T01:43:39.800Z,87.83
2023-08-20T01:46:11.320Z,87.73
2023-08-20T01:48:40.295Z,87.67
2023-08-20T01:51:10.084Z,87.83
2023-08-20T01:53:39.092Z,87.90
2023-08-20T01:56:13.656Z,87.86
2023-08-20T01:58:44.390Z,87.63
2023-08-20T02:01:13.741Z,87.84
2023-08-20T02:03:42.764Z,87.42
2023-08-20T02:06:11.828Z,87.76
2023-08-20T02:08:40.662Z,87.77
2023-08-20T02:11:09.717Z,87.62
2023-08-20T02:13:38.949Z,87.59
2023-08-20T02:16:09.170Z,87.57
2023-08-20T02:18:38.774Z,87.41
2023-08-20T02:21:07.673Z,87.59
2023-08-20T02:23:37.292Z,87.82
2023-08-20T02:26:08.537Z,87.86
2023-08-20T02:28:37.531Z,87.94
2023-08-20T02:31:08.505Z,87.98
2023-08-20T02:33:37.485Z,87.92
2023-08-20T02:36:07.252Z,88.03
2023-08-20T02:38:36.567Z,87.75
2023-08-20T02:41:05.479Z,87.90
2023-08-20T02:43:34.851Z,87.81
2023-08-20T02:46:04.362Z,87.85
2023-08-20T02:48:35.112Z,87.58
2023-08-20T02:51:04.044Z,87.83
2023-08-20T02:53:32.962Z,87.55
2023-08-20T02:56:02.061Z,87.55
2023-08-20T02:58:31.822Z,87.61
2023-08-20T03:01:01.196Z,87.83
2023-08-20T03:03:30.076Z,87.64
2023-08-20T03:06:02.150Z,87.65
2023-08-20T03:08:30.955Z,87.70
2023-08-20T03:10:59.936Z,87.56
2023-08-20T03:13:28.879Z,87.63
2023-08-20T03:15:57.767Z,87.54
2023-08-20T03:18:26.834Z,87.66
2023-08-20T03:20:57.930Z,87.54
2023-08-20T03:23:29.665Z,87.61
2023-08-20T03:26:01.133Z,87.78
2023-08-20T03:28:30.265Z,87.67
2023-08-20T03:31:03.453Z,87.70
2023-08-20T03:33:37.235Z,87.74
2023-08-20T03:36:06.664Z,87.88
2023-08-20T03:38:36.993Z,87.80
2023-08-20T03:41:07.787Z,87.80
2023-08-20T03:43:38.623Z,87.71
2023-08-20T03:46:07.764Z,87.65
2023-08-20T03:48:36.653Z,87.60
2023-08-20T03:51:07.266Z,88.14
2023-08-20T03:53:37.679Z,88.02
2023-08-20T03:56:07.020Z,88.26
2023-08-20T03:58:35.766Z,88.07
2023-08-20T04:01:05.272Z,88.02
2023-08-20T04:03:34.616Z,87.96
2023-08-20T04:06:03.244Z,87.91
2023-08-20T04:08:32.167Z,87.93
2023-08-20T04:11:03.798Z,87.91
2023-08-20T04:13:32.825Z,87.74
2023-08-20T04:16:01.640Z,87.75
2023-08-20T04:18:30.948Z,87.78
2023-08-20T04:20:59.838Z,87.92
2023-08-20T04:23:28.995Z,87.86
2023-08-20T04:26:00.565Z,88.07
2023-08-20T04:28:31.007Z,87.96
2023-08-20T04:31:01.655Z,87.88
2023-08-20T04:33:40.371Z,88.27
2023-08-20T04:36:09.686Z,87.99
2023-08-20T04:38:38.547Z,87.85
2023-08-20T04:41:08.027Z,87.75
2023-08-20T04:43:38.648Z,87.72
2023-08-20T04:46:08.488Z,87.70
2023-08-20T04:48:37.309Z,87.51
2023-08-20T04:51:08.447Z,87.58
2023-08-20T04:53:38.286Z,87.54
2023-08-20T04:56:07.179Z,87.75
2023-08-20T04:58:36.121Z,87.63
2023-08-20T05:01:07.188Z,87.51
2023-08-20T05:03:38.277Z,87.44
2023-08-20T05:06:07.386Z,87.21
2023-08-20T05:08:36.136Z,87.20
2023-08-20T05:11:04.986Z,87.16
2023-08-20T05:13:33.785Z,87.13
2023-08-20T05:16:03.244Z,87.12
2023-08-20T05:18:33.528Z,87.03
2023-08-20T05:21:03.765Z,87.04
2023-08-20T05:23:32.686Z,86.75
2023-08-20T05:26:01.511Z,86.37
2023-08-20T05:28:30.386Z,86.62
2023-08-20T05:30:59.566Z,86.47
2023-08-20T05:33:28.804Z,86.33
2023-08-20T05:35:59.522Z,86.02
2023-08-20T05:38:29.469Z,85.87
2023-08-20T05:40:58.377Z,85.69
2023-08-20T05:43:27.237Z,85.52
2023-08-20T05:45:56.269Z,85.33
2023-08-20T05:48:26.457Z,84.92
2023-08-20T05:50:55.378Z,84.46
2023-08-20T05:53:25.898Z,84.30
2023-08-20T05:55:55.443Z,83.98
2023-08-20T05:58:24.418Z,83.52
2023-08-20T06:00:53.798Z,83.28
2023-08-20T06:03:23.393Z,83.12
2023-08-20T06:05:52.237Z,82.60
2023-08-20T06:08:21.082Z,82.17
2023-08-20T06:10:51.300Z,81.82
2023-08-20T06:13:20.209Z,81.44
2023-08-20T06:15:49.475Z,80.88
2023-08-20T06:18:18.298Z,80.76
2023-08-20T06:20:47.078Z,80.32
2023-08-20T06:23:31.871Z,80.13
2023-08-20T06:26:07.292Z,79.72
2023-08-20T06:28:36.215Z,79.73
2023-08-20T06:31:05.102Z,79.57
2023-08-20T06:33:34.007Z,79.29
2023-08-20T06:36:02.946Z,79.10
2023-08-20T06:38:31.852Z,78.59
2023-08-20T06:41:00.733Z,77.60
2023-08-20T06:43:31.499Z,76.93
2023-08-20T06:46:00.425Z,76.45
2023-08-20T06:48:29.296Z,75.55
2023-08-20T06:50:58.713Z,75.33
2023-08-20T06:53:27.937Z,75.31
2023-08-20T06:55:56.726Z,74.53
2023-08-20T06:58:25.737Z,74.50
2023-08-20T07:00:56.029Z,74.23
2023-08-20T07:03:24.986Z,73.84
2023-08-20T07:05:53.812Z,73.30
2023-08-20T07:08:22.798Z,72.66
2023-08-20T07:10:51.547Z,73.05
2023-08-20T07:13:20.380Z,72.62
2023-08-20T07:15:49.157Z,72.30
2023-08-20T07:18:19.459Z,71.61
2023-08-20T07:20:48.552Z,71.46
2023-08-20T07:23:17.288Z,71.07
2023-08-20T07:25:48.084Z,70.44
2023-08-20T07:28:22.273Z,70.26
2023-08-20T07:30:51.117Z,69.89
2023-08-20T07:33:21.369Z,69.69
2023-08-20T07:35:50.228Z,69.32
2023-08-20T07:38:19.178Z,69.22
2023-08-20T07:40:48.002Z,69.45
2023-08-20T07:43:16.780Z,68.94
2023-08-20T07:45:45.835Z,68.44
2023-08-20T07:48:15.219Z,68.79
2023-08-20T07:50:45.551Z,68.54
2023-08-20T07:53:14.382Z,67.94
2023-08-20T07:55:43.516Z,68.22
2023-08-20T07:58:12.089Z,67.85
2023-08-20T08:00:40.839Z,66.75
2023-08-20T08:03:11.088Z,66.19
2023-08-20T08:05:40.031Z,66.35
2023-08-20T08:08:10.364Z,65.93
2023-08-20T08:10:39.339Z,65.96
2023-08-20T08:13:09.589Z,65.65
2023-08-20T08:15:39.119Z,66.05
2023-08-20T08:18:07.771Z,65.50
2023-08-20T08:20:37.029Z,65.84
2023-08-20T08:23:06.282Z,65.83
2023-08-20T08:25:36.689Z,64.72
2023-08-20T08:28:06.173Z,64.48
2023-08-20T08:30:35.106Z,64.67
2023-08-20T08:33:03.928Z,64.22
2023-08-20T08:35:32.598Z,63.78
2023-08-20T08:38:01.562Z,62.66
2023-08-20T08:40:31.819Z,62.79
2023-08-20T08:43:05.711Z,62.68
2023-08-20T08:45:35.903Z,62.74
2023-08-20T08:48:05.540Z,62.69
2023-08-20T08:50:34.828Z,61.24
2023-08-20T08:53:03.981Z,60.26
2023-08-20T08:55:32.392Z,60.30
2023-08-20T08:58:02.566Z,60.04
2023-08-20T09:00:33.819Z,59.63
2023-08-20T09:03:03.155Z,59.43
2023-08-20T09:05:31.956Z,58.42
2023-08-20T09:08:00.811Z,58.40
2023-08-20T09:10:29.851Z,57.69
2023-08-20T09:12:59.218Z,57.23
2023-08-20T09:15:36.974Z,56.78
2023-08-20T09:18:06.195Z,58.39
2023-08-20T09:20:37.803Z,57.98
2023-08-20T09:23:06.879Z,56.63
2023-08-20T09:25:35.355Z,57.00
2023-08-20T09:28:05.837Z,56.44
2023-08-20T09:30:36.751Z,57.06
2023-08-20T09:33:07.232Z,56.27
2023-08-20T09:35:36.246Z,55.79
2023-08-20T09:38:08.030Z,55.27
2023-08-20T09:40:36.832Z,54.64
2023-08-20T09:43:09.647Z,54.13
2023-08-20T09:45:41.075Z,54.49
2023-08-20T09:48:11.974Z,53.86
2023-08-20T09:50:42.975Z,54.13
2023-08-20T09:53:24.235Z,53.09
2023-08-20T09:55:54.959Z,51.44
2023-08-20T09:58:27.005Z,51.30
2023-08-20T10:00:59.226Z,51.34
2023-08-20T10:03:28.267Z,51.06
2023-08-20T10:05:59.437Z,51.69
2023-08-20T10:08:29.479Z,51.73
2023-08-20T10:10:58.584Z,51.35
2023-08-20T10:13:27.454Z,50.80
2023-08-20T10:15:58.014Z,51.06
2023-08-20T10:18:29.011Z,50.46
2023-08-20T10:21:04.190Z,50.18
2023-08-20T10:23:34.676Z,49.97
2023-08-20T10:26:10.358Z,50.24
2023-08-20T10:28:39.560Z,50.12
2023-08-20T10:31:14.192Z,48.86
2023-08-20T10:33:52.387Z,48.43
2023-08-20T10:36:27.606Z,48.36
2023-08-20T10:38:58.230Z,49.64
2023-08-20T10:41:30.884Z,49.35
2023-08-20T10:44:01.648Z,48.47
2023-08-20T10:46:32.651Z,48.63
2023-08-20T10:49:05.367Z,48.17
2023-08-20T10:51:36.596Z,47.58
2023-08-20T10:54:08.399Z,47.48
2023-08-20T10:56:42.334Z,47.61
2023-08-20T10:59:12.058Z,47.58
2023-08-20T11:01:42.777Z,47.39
2023-08-20T11:04:11.976Z,47.92
2023-08-20T11:06:41.636Z,48.89
2023-08-20T11:09:12.236Z,47.73
2023-08-20T11:11:41.828Z,46.21
2023-08-20T11:14:16.184Z,46.28
2023-08-20T11:16:47.193Z,45.89
2023-08-20T11:19:17.366Z,46.26
2023-08-20T11:21:47.358Z,46.32
2023-08-20T11:24:16.378Z,46.51
2023-08-20T11:26:45.039Z,46.04
2023-08-20T11:29:15.228Z,45.29
2023-08-20T11:31:45.697Z,46.19
2023-08-20T11:34:15.211Z,44.27
2023-08-20T11:36:44.468Z,43.44
2023-08-20T11:39:13.555Z,42.76
2023-08-20T11:41:43.172Z,43.05
2023-08-20T11:44:12.130Z,42.95
2023-08-20T11:46:46.680Z,43.51
2023-08-20T11:49:16.425Z,43.81
2023-08-20T11:51:48.269Z,43.22
2023-08-20T11:54:19.381Z,42.84
2023-08-20T11:56:49.852Z,42.60
2023-08-20T11:59:20.973Z,42.94
2023-08-20T12:01:54.544Z,42.22
2023-08-20T12:04:27.624Z,41.80
2023-08-20T12:07:06.531Z,42.97
2023-08-20T12:09:36.214Z,42.62
2023-08-20T12:12:08.177Z,41.71
2023-08-20T12:14:37.863Z,41.52
2023-08-20T12:17:08.248Z,42.89
2023-08-20T12:19:37.083Z,42.21
2023-08-20T12:22:06.009Z,41.91
2023-08-20T12:24:35.443Z,41.63
2023-08-20T12:27:04.929Z,41.53
2023-08-20T12:29:33.808Z,43.54
2023-08-20T12:32:02.906Z,42.02
2023-08-20T12:34:33.223Z,41.11
2023-08-20T12:37:02.432Z,41.02
2023-08-20T12:39:31.324Z,42.18
2023-08-20T12:42:00.428Z,41.32
2023-08-20T12:44:29.181Z,42.34
2023-08-20T12:46:57.675Z,42.36
2023-08-20T12:49:26.419Z,41.44
2023-08-20T12:51:56.543Z,40.59
2023-08-20T12:54:25.400Z,41.29
2023-08-20T12:56:53.964Z,41.65
2023-08-20T12:59:24.878Z,41.18
2023-08-20T13:01:55.885Z,41.60
2023-08-20T13:04:25.345Z,41.62
2023-08-20T13:06:54.671Z,40.97
2023-08-20T13:09:25.571Z,40.79
2023-08-20T13:11:58.379Z,40.36
2023-08-20T13:14:27.933Z,40.62
2023-08-20T13:16:57.923Z,41.36
2023-08-20T13:19:26.582Z,42.24
2023-08-20T13:21:55.549Z,42.98
2023-08-20T13:24:25.320Z,43.05
2023-08-20T13:26:54.301Z,43.20
2023-08-20T13:29:22.680Z,42.94
2023-08-20T13:31:51.688Z,42.37
2023-08-20T13:34:20.252Z,42.53
2023-08-20T13:36:49.804Z,42.03
2023-08-20T13:39:19.705Z,41.83
2023-08-20T13:41:52.562Z,41.54
2023-08-20T13:44:22.581Z,42.03
2023-08-20T13:46:51.459Z,42.82
2023-08-20T13:49:20.116Z,44.23
2023-08-20T13:51:48.992Z,44.04
2023-08-20T13:54:17.849Z,43.35
2023-08-20T13:56:46.721Z,43.60
2023-08-20T13:59:16.671Z,43.50
2023-08-20T14:01:45.460Z,44.11
2023-08-20T14:04:15.554Z,43.28
2023-08-20T14:06:46.601Z,43.28
2023-08-20T14:09:15.442Z,42.77
2023-08-20T14:11:44.404Z,42.66
2023-08-20T14:14:12.953Z,42.23
2023-08-20T14:16:43.258Z,41.79
2023-08-20T14:19:12.497Z,41.87
2023-08-20T14:21:41.210Z,41.70
2023-08-20T14:24:10.316Z,41.79
2023-08-20T14:26:39.064Z,42.18
2023-08-20T14:29:07.851Z,42.76
2023-08-20T14:31:36.785Z,42.88
2023-08-20T14:34:07.502Z,42.79
2023-08-20T14:36:36.378Z,44.25
2023-08-20T14:39:06.014Z,46.52
2023-08-20T14:41:35.203Z,44.57
2023-08-20T14:44:04.375Z,45.13
2023-08-20T14:46:33.342Z,43.55
2023-08-20T14:49:02.074Z,43.16
2023-08-20T14:51:32.417Z,43.19
2023-08-20T14:54:01.314Z,42.35
2023-08-20T14:56:30.991Z,42.47
2023-08-20T14:58:59.978Z,43.54
2023-08-20T15:01:28.468Z,43.57
2023-08-20T15:03:57.483Z,43.21
2023-08-20T15:06:28.001Z,43.41
2023-08-20T15:08:58.597Z,43.45
2023-08-20T15:11:29.351Z,42.83
2023-08-20T15:13:58.232Z,42.66
2023-08-20T15:16:27.051Z,43.13
2023-08-20T15:18:56.922Z,44.67
2023-08-20T15:21:25.640Z,45.25
2023-08-20T15:23:54.404Z,46.34
2023-08-20T15:26:24.801Z,45.88
2023-08-20T15:28:53.599Z,45.59
2023-08-20T15:31:22.560Z,45.91
2023-08-20T15:33:53.344Z,46.66
2023-08-20T15:36:22.193Z,46.64
2023-08-20T15:38:51.004Z,45.11
2023-08-20T15:41:19.811Z,44.13
2023-08-20T15:43:51.126Z,44.16
2023-08-20T15:46:20.094Z,44.00
2023-08-20T15:48:48.952Z,44.47
2023-08-20T15:51:17.569Z,44.38
2023-08-20T15:53:46.384Z,44.44
2023-08-20T15:56:15.335Z,45.69
2023-08-20T15:58:44.023Z,45.94
2023-08-20T16:01:14.335Z,44.78
2023-08-20T16:03:44.523Z,44.85
2023-08-20T16:06:13.748Z,44.80
2023-08-20T16:08:42.141Z,44.96
2023-08-20T16:11:11.003Z,44.86
2023-08-20T16:13:39.714Z,44.94
2023-08-20T16:16:08.628Z,45.22
2023-08-20T16:18:38.832Z,45.40
2023-08-20T16:21:10.976Z,46.69
2023-08-20T16:23:39.879Z,46.80
2023-08-20T16:26:08.674Z,47.41
2023-08-20T16:28:38.516Z,47.47
2023-08-20T16:31:08.299Z,46.87
2023-08-20T16:33:38.561Z,48.51
2023-08-20T16:36:07.646Z,48.67
2023-08-20T16:38:36.144Z,49.98
2023-08-20T16:41:05.360Z,50.33
2023-08-20T16:43:37.211Z,51.33
2023-08-20T16:46:05.996Z,51.18
2023-08-20T16:48:34.755Z,52.29
2023-08-20T16:51:06.369Z,53.19
2023-08-20T16:53:35.171Z,54.41
2023-08-20T16:56:04.393Z,54.62
2023-08-20T16:58:33.990Z,55.51
2023-08-20T17:01:05.823Z,56.09
2023-08-20T17:03:34.941Z,57.06
2023-08-20T17:06:05.528Z,57.62
2023-08-20T17:08:34.385Z,57.53
2023-08-20T17:11:08.056Z,58.15
2023-08-20T17:13:39.064Z,58.98
2023-08-20T17:16:08.614Z,59.22
2023-08-20T17:18:37.903Z,59.96
2023-08-20T17:21:08.730Z,60.82
2023-08-20T17:23:37.640Z,61.40
2023-08-20T17:26:06.406Z,62.21
2023-08-20T17:28:35.312Z,62.78
2023-08-20T17:31:05.545Z,63.35
2023-08-20T17:33:35.252Z,63.85
2023-08-20T17:36:04.753Z,63.94
2023-08-20T17:38:34.896Z,64.62
2023-08-20T17:41:06.147Z,65.09
2023-08-20T17:43:35.040Z,64.87
2023-08-20T17:46:04.048Z,65.16
2023-08-20T17:48:33.071Z,65.12
2023-08-20T17:51:01.849Z,65.22
2023-08-20T17:53:30.673Z,65.13
2023-08-20T17:56:01.646Z,65.86
2023-08-20T17:58:30.999Z,66.07
2023-08-20T18:00:59.897Z,66.41
2023-08-20T18:03:28.837Z,65.52
2023-08-20T18:05:57.853Z,64.72
2023-08-20T18:08:26.761Z,64.06
2023-08-20T18:10:58.698Z,63.09
2023-08-20T18:13:30.141Z,62.29
2023-08-20T18:15:59.575Z,61.95
2023-08-20T18:18:29.891Z,61.10
2023-08-20T18:20:58.843Z,60.63
2023-08-20T18:23:27.904Z,60.31
2023-08-20T18:25:56.751Z,60.72
2023-08-20T18:28:25.711Z,60.66
2023-08-20T18:30:56.828Z,60.66
2023-08-20T18:33:27.819Z,61.24
2023-08-20T18:35:59.399Z,61.80
2023-08-20T18:38:40.888Z,62.00
2023-08-20T18:41:13.813Z,62.41
2023-08-20T18:43:43.000Z,62.78
2023-08-20T18:46:13.411Z,62.86
2023-08-20T18:48:42.722Z,62.70
2023-08-20T18:51:11.214Z,62.42
2023-08-20T18:53:40.100Z,62.83
2023-08-20T18:56:08.934Z,62.92
2023-08-20T18:58:37.779Z,63.02
2023-08-20T19:01:08.736Z,62.81
2023-08-20T19:03:39.246Z,63.47
2023-08-20T19:06:08.310Z,64.77
2023-08-20T19:08:37.073Z,65.04
2023-08-20T19:11:06.036Z,65.30
2023-08-20T19:13:34.906Z,65.33
2023-08-20T19:16:04.130Z,65.95
2023-08-20T19:18:32.869Z,66.50
2023-08-20T19:21:03.223Z,66.46
2023-08-20T19:23:32.149Z,66.53
2023-08-20T19:26:01.117Z,66.27
2023-08-20T19:28:30.197Z,66.55
2023-08-20T19:30:59.047Z,66.87
2023-08-20T19:33:28.014Z,67.46
2023-08-20T19:35:56.802Z,67.71
2023-08-20T19:38:27.224Z,68.18
2023-08-20T19:40:57.005Z,68.66
2023-08-20T19:43:25.986Z,68.76
2023-08-20T19:45:56.584Z,68.81
2023-08-20T19:48:26.160Z,69.27
2023-08-20T19:50:55.316Z,69.58
2023-08-20T19:53:24.037Z,69.59
2023-08-20T19:55:57.819Z,69.58
2023-08-20T19:58:27.245Z,69.48
2023-08-20T20:00:56.972Z,69.42
2023-08-20T20:03:25.912Z,69.78
2023-08-20T20:05:54.759Z,69.91
2023-08-20T20:08:25.621Z,70.70
2023-08-20T20:10:58.035Z,71.12
2023-08-20T20:13:27.016Z,71.55
2023-08-20T20:15:55.879Z,71.46
2023-08-20T20:18:24.991Z,71.57
2023-08-20T20:20:53.734Z,72.04
2023-08-20T20:23:22.696Z,72.11
2023-08-20T20:25:51.510Z,72.64
2023-08-20T20:28:21.846Z,72.74
2023-08-20T20:30:50.896Z,72.61
2023-08-20T20:33:19.715Z,72.55
2023-08-20T20:35:53.966Z,73.08
2023-08-20T20:38:23.328Z,73.63
2023-08-20T20:40:52.503Z,73.68
2023-08-20T20:43:26.050Z,73.74
2023-08-20T20:45:55.509Z,73.84
2023-08-20T20:48:24.015Z,74.10
2023-08-20T20:50:53.226Z,73.98
2023-08-20T20:53:22.029Z,73.76
2023-08-20T20:55:51.290Z,73.63
2023-08-20T20:58:20.139Z,73.84
2023-08-20T21:00:50.491Z,73.92
2023-08-20T21:03:19.536Z,73.98
2023-08-20T21:05:48.368Z,74.12
2023-08-20T21:08:17.202Z,74.43
2023-08-20T21:10:46.013Z,74.42
2023-08-20T21:13:15.325Z,74.11
2023-08-20T21:15:44.186Z,73.72
2023-08-20T21:18:14.634Z,73.34
2023-08-20T21:20:43.675Z,73.50
2023-08-20T21:23:12.469Z,73.80
2023-08-20T21:25:41.393Z,73.85
2023-08-20T21:28:10.588Z,74.29
2023-08-20T21:30:39.482Z,74.51
2023-08-20T21:33:08.508Z,74.54
2023-08-20T21:35:38.717Z,74.67
2023-08-20T21:38:07.732Z,74.91
2023-08-20T21:40:36.888Z,75.04
2023-08-20T21:43:08.392Z,75.08
2023-08-20T21:45:37.651Z,75.49
2023-08-20T21:48:07.288Z,75.62
2023-08-20T21:50:36.211Z,75.77
2023-08-20T21:53:06.877Z,75.71
2023-08-20T21:55:36.963Z,76.06
2023-08-20T21:58:06.044Z,76.43
2023-08-20T22:00:34.963Z,76.80
2023-08-20T22:05:32.462Z,76.80
2023-08-20T22:08:01.446Z,76.44
2023-08-20T22:10:31.852Z,76.32
2023-08-20T22:13:00.763Z,76.53
2023-08-20T22:15:29.766Z,76.56
2023-08-20T22:17:59.211Z,76.61
2023-08-20T22:20:28.437Z,76.37
2023-08-20T22:22:57.431Z,76.54
2023-08-20T22:25:26.703Z,76.38
2023-08-20T22:27:57.071Z,76.77
2023-08-20T22:30:25.994Z,76.59
2023-08-20T22:32:54.832Z,76.93
2023-08-20T22:35:24.136Z,77.34
2023-08-20T22:38:06.475Z,77.41
2023-08-20T22:40:35.598Z,77.64
2023-08-20T22:43:06.603Z,77.96
2023-08-20T22:45:35.632Z,77.98
2023-08-20T22:48:04.554Z,78.22
2023-08-20T22:50:34.184Z,77.93
2023-08-20T22:53:04.561Z,77.81
2023-08-20T22:55:33.423Z,77.91
2023-08-20T22:58:02.662Z,77.79
2023-08-20T23:00:32.963Z,77.54
2023-08-20T23:03:01.979Z,77.45
2023-08-20T23:05:30.880Z,77.33
2023-08-20T23:07:59.700Z,77.51
2023-08-20T23:10:28.547Z,77.62
2023-08-20T23:12:57.673Z,77.76
2023-08-20T23:15:26.419Z,78.06
2023-08-20T23:17:57.544Z,78.13
2023-08-20T23:20:26.441Z,78.75
2023-08-20T23:22:55.235Z,78.70
2023-08-20T23:25:24.397Z,78.75
2023-08-20T23:27:53.163Z,78.76
2023-08-20T23:30:22.009Z,78.86
2023-08-20T23:32:52.556Z,78.85
2023-08-20T23:35:23.122Z,79.02
2023-08-20T23:37:51.894Z,78.99
2023-08-20T23:40:20.771Z,78.75
2023-08-20T23:42:51.479Z,78.61
2023-08-20T23:45:20.359Z,78.49
2023-08-20T23:47:49.163Z,78.65
2023-08-20T23:50:18.356Z,78.52
2023-08-20T23:52:48.752Z,78.43
2023-08-20T23:55:17.794Z,78.39
2023-08-20T23:57:46.642Z,78.50
